Time;durP1;ratioP1;P1;durP2;ratioP2;P2;SDS_P1;SDS_P2;PMS_P1;PMS_P2;Temp;Humidity;BMP_temperature;BMP_pressure;BME280_temperature;BME280_humidity;BME280_pressure;Samples;Min_cycle;Max_cycle;Signal;HPM_P1;HPM_P2
2022/03/20 00:00:22;;;;;;;;;;;6.90;90.10;;;;;;4995064;28;19910;-66
2022/03/20 00:02:48;;;;;;;;;;;6.90;90.10;;;;;;4976959;28;20279;-68
2022/03/20 00:05:15;;;;;;;;;;;7.00;89.50;;;;;;4993609;28;19920;-68
2022/03/20 00:07:41;;;;;;;;;;;7.00;89.60;;;;;;4977271;28;20288;-68
2022/03/20 00:10:08;;;;;;;;;;;7.00;89.10;;;;;;4976376;28;19914;-66
2022/03/20 00:12:34;;;;;;;;;;;7.00;89.10;;;;;;4976938;28;19916;-67
2022/03/20 00:14:59;;;;;;;;;;;7.00;88.90;;;;;;4975997;28;19910;-66
2022/03/20 00:17:25;;;;;;;;;;;7.00;88.40;;;;;;4994246;28;19917;-67
2022/03/20 00:19:51;;;;;;;;;;;7.10;88.00;;;;;;4976745;28;20382;-67
2022/03/20 00:22:16;;;;;;;;;;;6.90;88.00;;;;;;4975587;28;20032;-66
2022/03/20 00:24:43;;;;;;;;;;;7.00;88.20;;;;;;4975960;28;20032;-66
2022/03/20 00:27:11;;;;;;;;;;;6.90;87.90;;;;;;4975045;28;20359;-66
2022/03/20 00:29:36;;;;;;;;;;;6.90;87.80;;;;;;4993535;28;19918;-66
2022/03/20 00:32:02;;;;;;;;;;;6.90;87.60;;;;;;4991757;28;19929;-66
2022/03/20 00:34:28;;;;;;;;;;;6.90;87.50;;;;;;4993211;28;19914;-65
2022/03/20 00:36:54;;;;;;;;;;;6.90;87.40;;;;;;4975853;28;20388;-68
2022/03/20 00:39:20;;;;;;;;;;;6.90;87.20;;;;;;4992765;28;19909;-67
2022/03/20 00:41:46;;;;;;;;;;;6.90;86.70;;;;;;4993245;28;19929;-67
2022/03/20 00:44:11;;;;;;;;;;;7.00;85.30;;;;;;4992803;28;19914;-67
2022/03/20 00:46:37;;;;;;;;;;;6.90;84.80;;;;;;4992774;28;19961;-66
2022/03/20 00:49:02;;;;;;;;;;;6.90;84.90;;;;;;4992895;28;20351;-66
2022/03/20 00:51:28;;;;;;;;;;;6.90;83.70;;;;;;4975586;28;19922;-66
2022/03/20 00:53:53;;;;;;;;;;;6.90;83.90;;;;;;4993112;28;19963;-66
2022/03/20 00:56:19;;;;;;;;;;;7.00;83.60;;;;;;4974898;28;19953;-67
2022/03/20 00:58:46;;;;;;;;;;;7.10;82.90;;;;;;4992666;28;19910;-67
2022/03/20 01:01:13;;;;;;;;;;;7.10;82.50;;;;;;4974810;28;19916;-66
2022/03/20 01:03:38;;;;;;;;;;;7.10;82.40;;;;;;4993108;28;19973;-67
2022/03/20 01:06:06;;;;;;;;;;;7.10;81.70;;;;;;4992444;28;19918;-66
2022/03/20 01:08:32;;;;;;;;;;;7.10;81.60;;;;;;4991543;28;19966;-68
2022/03/20 01:10:57;;;;;;;;;;;7.10;81.30;;;;;;4975462;28;19917;-67
2022/03/20 01:13:23;;;;;;;;;;;7.10;81.60;;;;;;4974816;28;19960;-66
2022/03/20 01:15:49;;;;;;;;;;;7.20;81.00;;;;;;4975347;28;20362;-66
2022/03/20 01:18:14;;;;;;;;;;;7.10;80.90;;;;;;4974757;28;19909;-67
2022/03/20 01:20:40;;;;;;;;;;;7.10;80.70;;;;;;4992512;28;20357;-66
2022/03/20 01:23:05;;;;;;;;;;;7.20;80.60;;;;;;4974494;28;19918;-67
2022/03/20 01:25:31;;;;;;;;;;;7.20;80.60;;;;;;4992318;28;19918;-67
2022/03/20 01:27:56;;;;;;;;;;;7.10;80.60;;;;;;4975506;28;19917;-67
2022/03/20 01:30:22;;;;;;;;;;;7.10;80.30;;;;;;4992440;28;19910;-68
2022/03/20 01:32:48;;;;;;;;;;;7.10;79.80;;;;;;4975058;28;20278;-67
2022/03/20 01:35:13;;;;;;;;;;;7.10;79.80;;;;;;4991783;28;19910;-67
2022/03/20 01:37:41;;;;;;;;;;;7.10;79.60;;;;;;4992514;28;20323;-67
2022/03/20 01:40:07;;;;;;;;;;;7.20;79.70;;;;;;4974157;28;19972;-66
2022/03/20 01:42:33;;;;;;;;;;;7.10;79.50;;;;;;4974796;28;19914;-67
2022/03/20 01:44:58;;;;;;;;;;;7.10;79.00;;;;;;4974807;28;20278;-66
2022/03/20 01:47:24;;;;;;;;;;;7.10;79.10;;;;;;4974059;28;20304;-67
2022/03/20 01:49:49;;;;;;;;;;;7.10;79.40;;;;;;4974775;28;19917;-67
2022/03/20 01:52:15;;;;;;;;;;;7.00;79.00;;;;;;4973796;28;19913;-67
2022/03/20 01:54:42;;;;;;;;;;;7.10;79.00;;;;;;4974577;28;19996;-66
2022/03/20 01:57:09;;;;;;;;;;;7.10;79.20;;;;;;4991725;28;19920;-66
2022/03/20 01:59:35;;;;;;;;;;;7.10;78.60;;;;;;4974665;28;20279;-66
2022/03/20 02:02:04;;;;;;;;;;;7.10;78.50;;;;;;4992072;28;19914;-66
2022/03/20 02:04:30;;;;;;;;;;;7.20;78.50;;;;;;4990830;28;20290;-66
2022/03/20 02:06:56;;;;;;;;;;;7.20;78.50;;;;;;4974745;28;20017;-65
2022/03/20 02:09:21;;;;;;;;;;;7.10;78.90;;;;;;4974017;28;20604;-66
2022/03/20 02:11:47;;;;;;;;;;;7.10;78.90;;;;;;4992164;28;20364;-66
2022/03/20 02:14:13;;;;;;;;;;;7.00;79.00;;;;;;4990202;28;19910;-67
2022/03/20 02:16:39;;;;;;;;;;;7.00;79.20;;;;;;4991996;28;20286;-66
2022/03/20 02:19:07;;;;;;;;;;;7.00;79.00;;;;;;4991577;28;20419;-67
2022/03/20 02:21:48;;;;;;;;;;;7.00;79.20;;;;;;4994389;28;19914;-66
2022/03/20 02:24:29;;;;;;;;;;;6.90;79.20;;;;;;4977714;28;19918;-66
2022/03/20 02:27:24;;;;;;;;;;;6.90;79.10;;;;;;4977988;28;19933;-66
2022/03/20 02:29:49;;;;;;;;;;;7.00;79.30;;;;;;4965532;28;19925;-66
2022/03/20 02:32:19;;;;;;;;;;;6.90;79.30;;;;;;4994924;28;20016;-66
2022/03/20 02:34:47;;;;;;;;;;;6.90;79.60;;;;;;4995546;28;20363;-66
2022/03/20 02:37:13;;;;;;;;;;;7.00;79.30;;;;;;4977599;28;20312;-67
2022/03/20 02:39:39;;;;;;;;;;;6.90;79.40;;;;;;4994416;28;19917;-66
2022/03/20 02:42:06;;;;;;;;;;;7.00;79.50;;;;;;4994832;28;19913;-68
2022/03/20 02:44:47;;;;;;;;;;;7.10;79.50;;;;;;4978077;28;19914;-66
2022/03/20 02:47:12;;;;;;;;;;;7.00;79.10;;;;;;4995118;28;19917;-66
2022/03/20 02:49:38;;;;;;;;;;;7.00;79.40;;;;;;4977975;28;19909;-67
2022/03/20 02:52:04;;;;;;;;;;;7.00;79.60;;;;;;4995613;28;19921;-66
2022/03/20 02:54:29;;;;;;;;;;;7.10;79.30;;;;;;4977331;28;20001;-67
2022/03/20 02:56:55;;;;;;;;;;;7.00;79.30;;;;;;4995962;28;20215;-67
2022/03/20 02:59:22;;;;;;;;;;;7.10;79.50;;;;;;4994820;28;19910;-66
2022/03/20 03:01:47;;;;;;;;;;;7.00;79.60;;;;;;4995121;28;20119;-66
2022/03/20 03:04:13;;;;;;;;;;;7.00;79.60;;;;;;4977230;28;19977;-64
2022/03/20 03:06:38;;;;;;;;;;;7.00;79.80;;;;;;4993591;28;19921;-65
2022/03/20 03:11:48;;;;;;;;;;;7.00;79.90;;;;;;4994975;28;19916;-65
2022/03/20 03:16:57;;;;;;;;;;;7.00;80.10;;;;;;4994835;28;19921;-67
2022/03/20 03:19:23;;;;;;;;;;;6.90;80.60;;;;;;4994141;28;19910;-66
2022/03/20 03:21:49;;;;;;;;;;;6.80;80.90;;;;;;4977329;28;20240;-66
2022/03/20 03:24:14;;;;;;;;;;;6.70;81.20;;;;;;4994815;28;19918;-67
2022/03/20 03:26:40;;;;;;;;;;;6.80;81.10;;;;;;4977198;28;19957;-66
2022/03/20 03:29:05;;;;;;;;;;;6.80;81.60;;;;;;4977382;28;19917;-66
2022/03/20 03:31:31;;;;;;;;;;;6.70;81.70;;;;;;4976587;28;20365;-67
2022/03/20 03:36:41;;;;;;;;;;;6.70;82.40;;;;;;4994983;28;19917;-67
2022/03/20 03:39:08;;;;;;;;;;;6.60;82.80;;;;;;4993361;28;19914;-70
2022/03/20 03:41:33;;;;;;;;;;;6.60;83.10;;;;;;4994679;28;19913;-65
2022/03/20 03:44:00;;;;;;;;;;;6.70;83.40;;;;;;4994619;28;19977;-66
2022/03/20 03:46:25;;;;;;;;;;;6.80;83.00;;;;;;4976053;28;19909;-66
2022/03/20 03:48:51;;;;;;;;;;;6.70;83.10;;;;;;4976708;28;20375;-66
2022/03/20 03:51:16;;;;;;;;;;;6.70;83.10;;;;;;4976202;28;19914;-66
2022/03/20 03:53:42;;;;;;;;;;;6.70;83.00;;;;;;4994268;28;19957;-66
2022/03/20 03:56:08;;;;;;;;;;;6.70;83.20;;;;;;4993046;28;19914;-66
2022/03/20 03:58:34;;;;;;;;;;;6.80;83.00;;;;;;4993967;28;20369;-66
2022/03/20 04:01:00;;;;;;;;;;;6.80;83.10;;;;;;4994274;28;20004;-66
2022/03/20 04:03:27;;;;;;;;;;;6.80;82.90;;;;;;4975771;28;20291;-66
2022/03/20 04:05:53;;;;;;;;;;;6.90;83.10;;;;;;4976369;28;20012;-66
2022/03/20 04:08:18;;;;;;;;;;;6.90;83.10;;;;;;4976010;28;19910;-67
2022/03/20 04:10:44;;;;;;;;;;;6.90;82.80;;;;;;4976568;28;19949;-66
2022/03/20 04:13:09;;;;;;;;;;;6.90;82.90;;;;;;4976316;28;19985;-69
2022/03/20 04:15:35;;;;;;;;;;;6.90;83.10;;;;;;4993741;28;19960;-67
2022/03/20 04:18:01;;;;;;;;;;;6.90;83.10;;;;;;4976693;28;20267;-67
2022/03/20 04:20:27;;;;;;;;;;;7.00;83.10;;;;;;4975803;28;20000;-66
2022/03/20 04:25:39;;;;;;;;;;;6.90;83.60;;;;;;4993832;28;19947;-66
2022/03/20 04:28:05;;;;;;;;;;;6.80;84.10;;;;;;4993789;28;19910;-66
2022/03/20 04:30:32;;;;;;;;;;;6.90;84.10;;;;;;4975443;28;19965;-67
2022/03/20 04:32:58;;;;;;;;;;;6.80;84.20;;;;;;4975961;28;20335;-67
2022/03/20 04:35:24;;;;;;;;;;;6.90;84.40;;;;;;4993009;28;20001;-67
2022/03/20 04:37:53;;;;;;;;;;;6.80;84.30;;;;;;4976050;28;19910;-67
2022/03/20 04:40:19;;;;;;;;;;;6.90;84.50;;;;;;4992917;28;19910;-66
2022/03/20 04:42:44;;;;;;;;;;;7.00;84.30;;;;;;4991543;28;19921;-67
2022/03/20 04:45:11;;;;;;;;;;;7.00;84.40;;;;;;4993359;28;19976;-67
2022/03/20 04:58:35;;;;;;;;;;;6.90;85.20;;;;;;4992826;28;19917;-66
2022/03/20 05:01:00;;;;;;;;;;;6.90;85.20;;;;;;4975485;28;19910;-67
2022/03/20 05:03:27;;;;;;;;;;;6.80;85.70;;;;;;4974871;28;19976;-66
2022/03/20 05:05:52;;;;;;;;;;;6.80;86.00;;;;;;4975661;28;19960;-66
2022/03/20 05:08:18;;;;;;;;;;;6.80;86.00;;;;;;4992357;28;20024;-66
2022/03/20 05:13:27;;;;;;;;;;;6.80;86.20;;;;;;4992526;28;19976;-66
2022/03/20 05:15:55;;;;;;;;;;;6.90;86.40;;;;;;4992891;28;19910;-66
2022/03/20 05:18:20;;;;;;;;;;;6.90;86.40;;;;;;4974586;28;19910;-67
2022/03/20 05:20:46;;;;;;;;;;;6.90;86.60;;;;;;4992644;28;19944;-67
2022/03/20 05:23:11;;;;;;;;;;;6.90;86.40;;;;;;4974810;28;19914;-66
2022/03/20 05:25:37;;;;;;;;;;;6.90;86.40;;;;;;4992049;28;20001;-67
2022/03/20 05:28:04;;;;;;;;;;;6.90;86.80;;;;;;4975290;28;19949;-66
2022/03/20 05:30:30;;;;;;;;;;;6.90;87.00;;;;;;4990758;28;19910;-66
2022/03/20 05:32:55;;;;;;;;;;;7.00;86.90;;;;;;4992966;28;19909;-66
2022/03/20 05:35:21;;;;;;;;;;;7.00;86.70;;;;;;4974578;28;20316;-66
2022/03/20 05:37:47;;;;;;;;;;;7.00;86.70;;;;;;4992361;28;19914;-68
2022/03/20 05:40:13;;;;;;;;;;;7.00;87.00;;;;;;4982193;28;19917;-67
2022/03/20 05:42:38;;;;;;;;;;;7.00;86.90;;;;;;5010420;28;19921;-67
2022/03/20 05:45:04;;;;;;;;;;;7.00;87.10;;;;;;4994607;28;19914;-67
2022/03/20 05:47:33;;;;;;;;;;;7.10;87.20;;;;;;4993747;28;20270;-65
2022/03/20 05:50:02;;;;;;;;;;;7.10;87.20;;;;;;4994263;28;19910;-67
2022/03/20 05:52:31;;;;;;;;;;;7.00;87.40;;;;;;5011348;28;20429;-66
2022/03/20 05:54:57;;;;;;;;;;;7.10;87.40;;;;;;5007776;28;20248;-66
2022/03/20 06:00:16;;;;;;;;;;;7.10;87.10;;;;;;5012003;28;20352;-66
2022/03/20 06:02:44;;;;;;;;;;;7.10;87.20;;;;;;5011869;28;20378;-66
2022/03/20 06:05:10;;;;;;;;;;;7.20;87.40;;;;;;4994189;28;19913;-67
2022/03/20 06:07:40;;;;;;;;;;;7.20;87.40;;;;;;5011105;28;20686;-66
2022/03/20 06:10:08;;;;;;;;;;;7.20;87.10;;;;;;4994152;28;19909;-66
2022/03/20 06:12:34;;;;;;;;;;;7.30;87.40;;;;;;4973143;28;20016;-66
2022/03/20 06:14:59;;;;;;;;;;;7.20;87.40;;;;;;4992426;28;20067;-66
2022/03/20 06:17:25;;;;;;;;;;;7.30;87.10;;;;;;4974345;28;20261;-67
2022/03/20 06:19:52;;;;;;;;;;;7.30;87.20;;;;;;4992379;28;19950;-66
2022/03/20 06:22:18;;;;;;;;;;;7.30;86.80;;;;;;4974558;28;20248;-67
2022/03/20 06:24:43;;;;;;;;;;;7.40;86.60;;;;;;5002839;28;19918;-66
2022/03/20 06:27:09;;;;;;;;;;;7.20;87.00;;;;;;4981530;28;19926;-66
2022/03/20 06:29:34;;;;;;;;;;;7.40;87.00;;;;;;4976162;28;20344;-66
2022/03/20 06:32:00;;;;;;;;;;;7.50;86.90;;;;;;5007748;28;19989;-66
2022/03/20 06:34:26;;;;;;;;;;;7.40;86.50;;;;;;4993411;28;19982;-67
2022/03/20 06:36:55;;;;;;;;;;;7.60;86.10;;;;;;4994133;28;19917;-67
2022/03/20 06:39:21;;;;;;;;;;;7.60;86.10;;;;;;4993429;28;19909;-66
2022/03/20 06:41:47;;;;;;;;;;;7.50;86.30;;;;;;4993904;28;20275;-66
2022/03/20 06:44:15;;;;;;;;;;;7.40;86.70;;;;;;4993812;28;19914;-66
2022/03/20 06:46:41;;;;;;;;;;;7.30;87.00;;;;;;4993344;28;19917;-66
2022/03/20 06:49:08;;;;;;;;;;;7.40;87.10;;;;;;4993403;28;19914;-66
2022/03/20 06:51:34;;;;;;;;;;;7.40;87.20;;;;;;5010670;28;19909;-66
2022/03/20 06:53:59;;;;;;;;;;;7.60;86.40;;;;;;4993561;28;19917;-66
2022/03/20 06:56:25;;;;;;;;;;;7.70;86.80;;;;;;5010706;28;19921;-67
2022/03/20 06:58:50;;;;;;;;;;;7.70;86.60;;;;;;5011678;28;20267;-66
2022/03/20 07:01:16;;;;;;;;;;;7.80;86.30;;;;;;4993550;28;19913;-66
2022/03/20 07:03:41;;;;;;;;;;;7.70;86.20;;;;;;4993069;28;20270;-65
2022/03/20 07:06:07;;;;;;;;;;;7.70;86.50;;;;;;4993978;28;20251;-67
2022/03/20 07:08:33;;;;;;;;;;;7.90;86.30;;;;;;4996435;28;20252;-66
2022/03/20 07:10:58;;;;;;;;;;;8.00;86.40;;;;;;4997050;28;19956;-66
2022/03/20 07:16:08;;;;;;;;;;;7.60;86.50;;;;;;5007453;28;19920;-66
2022/03/20 07:18:34;;;;;;;;;;;7.80;86.70;;;;;;4989266;28;19910;-67
2022/03/20 07:21:00;;;;;;;;;;;7.90;86.30;;;;;;4984150;28;19933;-66
2022/03/20 07:23:26;;;;;;;;;;;7.70;86.70;;;;;;4992593;28;19921;-67
2022/03/20 07:31:20;;;;;;;;;;;7.90;86.00;;;;;;4997081;28;20366;-68
2022/03/20 07:33:48;;;;;;;;;;;8.00;86.30;;;;;;4977442;28;19910;-67
2022/03/20 07:36:13;;;;;;;;;;;8.00;86.40;;;;;;4994899;28;20264;-65
2022/03/20 07:38:40;;;;;;;;;;;8.00;86.80;;;;;;4985849;28;19909;-66
2022/03/20 07:41:06;;;;;;;;;;;8.30;85.90;;;;;;4981860;28;19910;-67
2022/03/20 07:43:32;;;;;;;;;;;8.20;85.70;;;;;;4985032;28;19982;-66
2022/03/20 07:45:57;;;;;;;;;;;8.30;85.40;;;;;;5009855;28;20013;-66
2022/03/20 07:48:23;;;;;;;;;;;8.40;86.10;;;;;;4996964;28;19910;-67
2022/03/20 07:50:53;;;;;;;;;;;8.70;85.00;;;;;;4985733;28;19913;-67
2022/03/20 07:53:19;;;;;;;;;;;8.80;85.20;;;;;;4996429;28;19975;-66
2022/03/20 07:55:45;;;;;;;;;;;8.90;84.10;;;;;;5013967;28;20369;-66
2022/03/20 07:58:12;;;;;;;;;;;8.90;83.90;;;;;;4978465;28;20360;-68
2022/03/20 08:00:38;;;;;;;;;;;8.90;83.40;;;;;;4992266;28;19913;-66
2022/03/20 08:03:05;;;;;;;;;;;8.90;84.40;;;;;;5013868;28;19920;-67
2022/03/20 08:05:30;;;;;;;;;;;9.40;88.60;;;;;;5012759;28;19913;-68
2022/03/20 08:07:56;;;;;;;;;;;9.20;83.40;;;;;;4996021;28;19935;-67
2022/03/20 08:10:22;;;;;;;;;;;9.40;83.10;;;;;;5013516;28;20271;-67
2022/03/20 08:12:48;;;;;;;;;;;10.00;81.80;;;;;;5014029;28;19956;-69
2022/03/20 08:15:16;;;;;;;;;;;9.80;81.60;;;;;;4996025;28;19916;-67
2022/03/20 08:17:45;;;;;;;;;;;10.30;82.90;;;;;;5012384;28;19909;-67
2022/03/20 08:20:11;;;;;;;;;;;10.50;80.40;;;;;;5010918;28;19914;-66
2022/03/20 08:22:37;;;;;;;;;;;10.30;80.10;;;;;;4995551;28;19917;-68
2022/03/20 08:25:03;;;;;;;;;;;10.40;80.50;;;;;;4994983;28;19997;-69
2022/03/20 08:27:29;;;;;;;;;;;10.40;79.80;;;;;;5011692;28;20042;-68
2022/03/20 08:29:56;;;;;;;;;;;10.40;79.50;;;;;;4995697;28;20292;-67
2022/03/20 08:32:22;;;;;;;;;;;10.90;79.60;;;;;;5013124;28;20314;-67
2022/03/20 08:34:47;;;;;;;;;;;10.70;78.90;;;;;;5010478;28;19980;-67
2022/03/20 08:37:14;;;;;;;;;;;10.40;79.00;;;;;;4987049;28;19913;-68
2022/03/20 08:39:39;;;;;;;;;;;10.80;79.70;;;;;;4996440;28;19910;-68
2022/03/20 08:42:05;;;;;;;;;;;11.40;77.70;;;;;;5008337;28;19920;-66
2022/03/20 08:44:31;;;;;;;;;;;11.80;78.90;;;;;;4975298;28;19992;-67
2022/03/20 08:46:56;;;;;;;;;;;12.00;78.00;;;;;;5008660;28;19971;-68
2022/03/20 08:49:22;;;;;;;;;;;12.10;76.00;;;;;;4993076;28;19928;-67
2022/03/20 08:51:47;;;;;;;;;;;12.50;75.50;;;;;;4993244;28;19976;-67
2022/03/20 08:54:13;;;;;;;;;;;12.10;75.20;;;;;;5006252;28;19953;-67
2022/03/20 08:56:38;;;;;;;;;;;12.10;75.50;;;;;;4983947;28;19921;-68
2022/03/20 08:59:06;;;;;;;;;;;12.40;74.90;;;;;;4984563;28;19920;-67
2022/03/20 09:01:32;;;;;;;;;;;12.00;75.20;;;;;;5002604;28;19914;-66
2022/03/20 09:03:57;;;;;;;;;;;11.90;75.40;;;;;;4983172;28;19983;-67
2022/03/20 09:06:23;;;;;;;;;;;11.80;75.30;;;;;;4986512;28;19921;-68
2022/03/20 09:08:49;;;;;;;;;;;11.80;75.80;;;;;;5004802;28;19909;-66
2022/03/20 09:11:15;;;;;;;;;;;11.70;75.70;;;;;;4985911;28;19909;-67
2022/03/20 09:13:41;;;;;;;;;;;12.00;75.40;;;;;;4985788;28;20004;-68
2022/03/20 09:19:00;;;;;;;;;;;12.30;74.40;;;;;;5005093;28;19920;-68
2022/03/20 09:21:29;;;;;;;;;;;12.30;74.90;;;;;;4984636;28;19914;-67
2022/03/20 09:23:55;;;;;;;;;;;12.30;74.60;;;;;;4982677;28;20012;-67
2022/03/20 09:26:21;;;;;;;;;;;12.40;74.70;;;;;;4980087;28;19925;-67
2022/03/20 09:28:46;;;;;;;;;;;12.30;74.90;;;;;;5000581;28;19922;-67
2022/03/20 09:31:13;;;;;;;;;;;12.00;75.20;;;;;;4982005;28;19921;-70
2022/03/20 09:33:39;;;;;;;;;;;12.10;88.10;;;;;;4984599;28;20414;-68
2022/03/20 09:36:04;;;;;;;;;;;12.30;75.70;;;;;;4982688;28;19913;-68
2022/03/20 09:38:31;;;;;;;;;;;11.80;76.40;;;;;;5005725;28;19920;-67
2022/03/20 09:40:57;;;;;;;;;;;11.90;76.20;;;;;;4984293;28;19920;-69
2022/03/20 09:43:22;;;;;;;;;;;12.00;76.00;;;;;;5001631;28;19914;-67
2022/03/20 09:45:48;;;;;;;;;;;11.80;76.70;;;;;;4982548;28;20257;-67
2022/03/20 09:48:14;;;;;;;;;;;12.00;76.60;;;;;;5001255;28;20000;-67
2022/03/20 09:50:39;;;;;;;;;;;12.90;75.60;;;;;;4981454;28;19910;-67
2022/03/20 09:53:05;;;;;;;;;;;13.20;74.40;;;;;;5000525;28;19909;-67
2022/03/20 09:55:31;;;;;;;;;;;13.30;73.50;;;;;;4982473;28;19918;-71
2022/03/20 09:57:57;;;;;;;;;;;13.50;73.70;;;;;;4982485;28;19936;-70
2022/03/20 10:00:24;;;;;;;;;;;13.80;73.10;;;;;;5007401;28;20337;-69
2022/03/20 10:02:49;;;;;;;;;;;14.10;72.50;;;;;;4992443;28;20315;-68
2022/03/20 10:05:19;;;;;;;;;;;13.80;72.90;;;;;;4999500;28;19917;-70
2022/03/20 10:07:45;;;;;;;;;;;14.30;72.50;;;;;;4973752;28;19998;-69
2022/03/20 10:10:12;;;;;;;;;;;13.60;74.90;;;;;;4979564;28;19920;-69
2022/03/20 10:12:43;;;;;;;;;;;13.50;74.70;;;;;;4989771;28;19914;-69
2022/03/20 10:15:12;;;;;;;;;;;13.70;75.00;;;;;;5011751;28;19997;-70
2022/03/20 10:17:38;;;;;;;;;;;14.30;72.70;;;;;;4993270;28;20012;-70
2022/03/20 10:20:16;;;;;;;;;;;13.90;72.80;;;;;;5006364;28;19914;-69
2022/03/20 10:22:42;;;;;;;;;;;14.40;72.20;;;;;;4993413;28;19913;-69
2022/03/20 10:25:12;;;;;;;;;;;15.20;71.40;;;;;;5008852;28;19944;-70
2022/03/20 10:27:38;;;;;;;;;;;15.10;70.20;;;;;;4996800;28;20029;-73
2022/03/20 10:30:07;;;;;;;;;;;15.30;70.30;;;;;;4977525;28;19913;-69
2022/03/20 10:32:33;;;;;;;;;;;15.30;70.40;;;;;;4989942;28;20071;-71
2022/03/20 10:35:00;;;;;;;;;;;15.10;70.50;;;;;;5015422;28;19993;-72
2022/03/20 10:37:46;;;;;;;;;;;16.10;69.10;;;;;;4982114;28;20342;-71
2022/03/20 10:40:14;;;;;;;;;;;17.10;67.70;;;;;;4993077;28;19909;-69
2022/03/20 10:42:39;;;;;;;;;;;17.00;69.00;;;;;;4995833;28;19914;-72
2022/03/20 10:45:06;;;;;;;;;;;17.20;72.70;;;;;;5015397;28;19935;-71
2022/03/20 10:47:31;;;;;;;;;;;17.90;68.90;;;;;;4996546;28;19910;-72
2022/03/20 10:50:05;;;;;;;;;;;17.50;68.50;;;;;;4997351;28;19917;-71
2022/03/20 10:52:30;;;;;;;;;;;17.90;68.10;;;;;;5014347;28;19910;-71
2022/03/20 10:54:56;;;;;;;;;;;18.20;65.70;;;;;;4996933;28;19916;-71
2022/03/20 10:57:31;;;;;;;;;;;18.50;66.10;;;;;;4996932;28;19917;-70
2022/03/20 10:59:58;;;;;;;;;;;18.40;65.80;;;;;;5000794;28;20231;-69
2022/03/20 11:02:24;;;;;;;;;;;17.40;66.90;;;;;;4994112;28;19965;-73
2022/03/20 11:04:51;;;;;;;;;;;16.20;67.60;;;;;;5001361;28;19917;-76
2022/03/20 11:07:17;;;;;;;;;;;16.50;68.00;;;;;;4959311;28;19960;-73
2022/03/20 11:09:46;;;;;;;;;;;16.60;67.20;;;;;;5004346;28;19992;-70
2022/03/20 11:12:15;;;;;;;;;;;17.00;66.70;;;;;;5003720;28;19913;-71
2022/03/20 11:14:42;;;;;;;;;;;16.50;67.70;;;;;;4989126;28;20585;-68
2022/03/20 11:17:08;;;;;;;;;;;16.80;67.60;;;;;;4981215;28;19913;-71
2022/03/20 11:19:39;;;;;;;;;;;16.20;68.20;;;;;;4991511;28;19918;-68
2022/03/20 11:22:06;;;;;;;;;;;16.40;68.20;;;;;;4990765;28;19918;-71
2022/03/20 11:24:32;;;;;;;;;;;16.40;68.00;;;;;;4992658;28;20386;-73
2022/03/20 11:27:00;;;;;;;;;;;16.60;73.50;;;;;;4992214;28;19925;-61
2022/03/20 11:29:28;;;;;;;;;;;17.10;75.10;;;;;;4994195;28;19910;-61
2022/03/20 11:31:54;;;;;;;;;;;17.30;70.50;;;;;;4992907;28;19921;-68
2022/03/20 11:34:21;;;;;;;;;;;17.00;69.50;;;;;;4990532;28;19909;-68
2022/03/20 11:37:00;;;;;;;;;;;16.70;69.10;;;;;;4989034;28;19918;-67
2022/03/20 11:39:25;;;;;;;;;;;17.60;68.10;;;;;;4985761;28;19933;-67
2022/03/20 11:42:09;;;;;;;;;;;17.00;68.10;;;;;;4991910;28;20368;-71
2022/03/20 11:44:35;;;;;;;;;;;16.70;70.10;;;;;;4993290;28;20008;-68
2022/03/20 11:47:16;;;;;;;;;;;17.10;69.10;;;;;;4991809;28;19961;-68
2022/03/20 11:49:42;;;;;;;;;;;16.50;70.20;;;;;;4991941;28;20382;-69
2022/03/20 11:52:15;;;;;;;;;;;15.80;71.50;;;;;;4990554;28;19989;-71
2022/03/20 11:54:40;;;;;;;;;;;15.80;72.10;;;;;;4983549;28;19921;-67
2022/03/20 11:57:24;;;;;;;;;;;15.80;72.70;;;;;;4981341;28;20105;-69
2022/03/20 11:59:51;;;;;;;;;;;15.90;73.40;;;;;;4982518;28;19932;-69
2022/03/20 12:02:17;;;;;;;;;;;15.80;75.40;;;;;;4980022;28;19918;-69
2022/03/20 12:05:03;;;;;;;;;;;15.80;75.80;;;;;;4981914;28;19926;-68
2022/03/20 12:07:55;;;;;;;;;;;15.40;77.00;;;;;;4974894;28;20255;-70
2022/03/20 12:10:28;;;;;;;;;;;15.20;78.10;;;;;;4980057;28;19918;-70
2022/03/20 12:13:00;;;;;;;;;;;15.10;79.00;;;;;;4980511;28;19925;-69
2022/03/20 12:15:27;;;;;;;;;;;14.90;80.50;;;;;;4984237;28;19937;-68
2022/03/20 12:17:58;;;;;;;;;;;14.70;81.50;;;;;;4982512;28;20538;-70
2022/03/20 12:20:59;;;;;;;;;;;14.70;81.50;;;;;;4989416;28;19928;-70
2022/03/20 12:23:32;;;;;;;;;;;14.50;82.20;;;;;;4969675;28;20359;-68
2022/03/20 12:25:58;;;;;;;;;;;14.30;82.90;;;;;;4979728;28;19929;-69
2022/03/20 12:28:30;;;;;;;;;;;14.40;82.70;;;;;;4984687;28;19925;-68
2022/03/20 12:30:56;;;;;;;;;;;14.50;82.60;;;;;;4984054;28;19914;-68
2022/03/20 12:33:23;;;;;;;;;;;14.40;82.60;;;;;;4980813;28;19909;-69
2022/03/20 12:35:49;;;;;;;;;;;14.20;82.30;;;;;;4980600;28;19985;-67
2022/03/20 12:38:37;;;;;;;;;;;14.20;82.40;;;;;;4982967;28;20327;-69
2022/03/20 12:41:21;;;;;;;;;;;14.20;82.20;;;;;;4980764;28;19937;-71
2022/03/20 12:43:58;;;;;;;;;;;14.20;82.00;;;;;;4979438;28;19925;-70
2022/03/20 12:46:24;;;;;;;;;;;14.30;80.50;;;;;;4978866;28;20010;-68
2022/03/20 12:48:50;;;;;;;;;;;14.50;79.70;;;;;;4986855;28;19953;-68
2022/03/20 12:51:20;;;;;;;;;;;14.80;78.90;;;;;;4982631;28;20396;-67
2022/03/20 12:53:46;;;;;;;;;;;15.10;78.20;;;;;;4979375;28;19914;-69
2022/03/20 12:56:32;;;;;;;;;;;15.20;78.10;;;;;;4987186;28;19965;-69
2022/03/20 12:58:58;;;;;;;;;;;15.60;77.10;;;;;;4980617;28;19910;-70
2022/03/20 13:01:26;;;;;;;;;;;15.60;75.80;;;;;;4985367;28;20303;-69
2022/03/20 13:03:51;;;;;;;;;;;16.10;75.50;;;;;;4989012;28;19914;-68
2022/03/20 13:06:17;;;;;;;;;;;16.80;74.00;;;;;;4988383;28;19914;-68
2022/03/20 13:08:46;;;;;;;;;;;16.50;72.60;;;;;;4987969;28;19968;-67
2022/03/20 13:14:14;;;;;;;;;;;17.00;71.90;;;;;;4989891;28;19921;-71
2022/03/20 13:16:50;;;;;;;;;;;17.90;71.00;;;;;;4966886;28;19941;-71
2022/03/20 13:19:29;;;;;;;;;;;17.20;71.00;;;;;;4967006;28;20470;-71
2022/03/20 13:21:55;;;;;;;;;;;17.20;71.60;;;;;;4947777;28;20782;-69
2022/03/20 13:24:31;;;;;;;;;;;17.30;71.30;;;;;;4957564;28;19914;-69
2022/03/20 13:26:57;;;;;;;;;;;17.80;70.70;;;;;;4966129;28;20556;-69
2022/03/20 13:29:23;;;;;;;;;;;18.00;71.20;;;;;;4963428;28;20404;-68
2022/03/20 13:32:22;;;;;;;;;;;17.80;71.30;;;;;;4960125;28;20023;-69
2022/03/20 13:34:47;;;;;;;;;;;17.70;72.20;;;;;;4938364;28;20094;-70
2022/03/20 13:37:14;;;;;;;;;;;18.30;70.60;;;;;;4944842;28;20009;-68
2022/03/20 13:39:47;;;;;;;;;;;18.60;69.80;;;;;;4959361;28;19955;-71
2022/03/20 13:42:16;;;;;;;;;;;18.30;70.30;;;;;;4959344;28;19925;-70
2022/03/20 13:44:42;;;;;;;;;;;18.00;71.60;;;;;;4945799;28;20281;-74
2022/03/20 13:47:09;;;;;;;;;;;18.00;71.70;;;;;;4959896;28;19918;-72
2022/03/20 13:49:35;;;;;;;;;;;18.50;70.80;;;;;;4982714;28;19917;-71
2022/03/20 13:52:01;;;;;;;;;;;18.70;69.70;;;;;;4980827;28;20080;-72
2022/03/20 13:54:29;;;;;;;;;;;18.40;69.80;;;;;;4978377;28;20528;-72
2022/03/20 13:57:09;;;;;;;;;;;18.10;70.40;;;;;;4986893;28;19921;-71
2022/03/20 13:59:52;;;;;;;;;;;18.10;69.60;;;;;;4981528;28;19914;-70
2022/03/20 14:02:17;;;;;;;;;;;18.50;67.70;;;;;;4987297;28;19994;-71
2022/03/20 14:04:44;;;;;;;;;;;18.30;67.30;;;;;;4986661;28;19972;-71
2022/03/20 14:07:18;;;;;;;;;;;18.30;67.70;;;;;;4987487;28;20343;-71
2022/03/20 14:09:44;;;;;;;;;;;18.60;67.80;;;;;;4980631;28;19917;-73
2022/03/20 14:12:27;;;;;;;;;;;18.90;66.40;;;;;;4987157;28;19909;-72
2022/03/20 14:14:53;;;;;;;;;;;18.70;66.30;;;;;;4982251;28;19910;-70
2022/03/20 14:17:23;;;;;;;;;;;18.70;65.70;;;;;;4990993;28;19921;-72
2022/03/20 14:19:49;;;;;;;;;;;19.30;65.10;;;;;;4991105;28;19969;-72
2022/03/20 14:22:18;;;;;;;;;;;19.00;65.80;;;;;;4992247;28;19925;-73
2022/03/20 14:24:54;;;;;;;;;;;18.50;66.10;;;;;;4986790;28;20376;-69
2022/03/20 14:27:28;;;;;;;;;;;18.80;65.20;;;;;;5005056;28;20115;-70
2022/03/20 14:40:53;;;;;;;;;;;18.90;73.30;;;;;;5011036;28;19931;-60
2022/03/20 14:43:26;;;;;;;;;;;19.20;73.50;;;;;;5005696;28;20339;-60
2022/03/20 14:45:55;;;;;;;;;;;19.60;73.70;;;;;;5011583;28;19921;-60
2022/03/20 14:48:22;;;;;;;;;;;20.20;77.50;;;;;;5003610;28;19913;-59
2022/03/20 14:50:47;;;;;;;;;;;20.20;76.30;;;;;;5011384;28;19914;-61
2022/03/20 14:53:28;;;;;;;;;;;19.60;70.00;;;;;;5005184;28;19988;-60
2022/03/20 14:55:54;;;;;;;;;;;19.80;69.10;;;;;;5003421;28;20356;-70
2022/03/20 14:58:20;;;;;;;;;;;19.10;63.90;;;;;;5011631;28;20017;-71
2022/03/20 15:00:46;;;;;;;;;;;18.80;64.30;;;;;;4993524;28;19910;-70
2022/03/20 15:03:12;;;;;;;;;;;18.70;64.50;;;;;;4977014;28;19964;-70
2022/03/20 15:05:37;;;;;;;;;;;18.50;65.20;;;;;;5011470;28;20345;-69
2022/03/20 15:13:32;;;;;;;;;;;18.90;72.70;;;;;;5010609;28;20262;-75
2022/03/20 15:15:57;;;;;;;;;;;19.50;73.10;;;;;;4992151;28;19913;-75
2022/03/20 15:18:23;;;;;;;;;;;19.50;70.70;;;;;;4993155;28;19971;-76
2022/03/20 15:20:48;;;;;;;;;;;19.50;80.20;;;;;;5010550;28;19909;-77
2022/03/20 15:23:14;;;;;;;;;;;19.60;79.60;;;;;;4990773;28;20223;-76